Time;durP1;ratioP1;P1;durP2;ratioP2;P2;SDS_P1;SDS_P2;PMS_P1;PMS_P2;Temp;Humidity;BMP_temperature;BMP_pressure;BME280_temperature;BME280_humidity;BME280_pressure;Samples;Min_cycle;Max_cycle;Signal;HPM_P1;HPM_P2
2024/02/06 00:00:16;;;;;;;3.22;0.50;;;18.10;58.30;;;;;;6231851;23;20149;-84
2024/02/06 00:02:43;;;;;;;2.28;0.90;;;18.10;58.50;;;;;;6181803;23;20175;-84
2024/02/06 00:05:09;;;;;;;1.17;0.40;;;18.00;58.20;;;;;;6206322;23;20136;-84
2024/02/06 00:07:34;;;;;;;2.00;0.95;;;18.10;58.30;;;;;;6201404;23;20261;-83
2024/02/06 00:10:01;;;;;;;1.48;0.55;;;18.00;58.30;;;;;;6226090;23;20150;-84
2024/02/06 00:12:27;;;;;;;2.95;0.60;;;18.10;58.20;;;;;;6200533;23;20205;-85
2024/02/06 00:14:53;;;;;;;3.58;0.50;;;18.00;58.30;;;;;;6225916;23;20164;-85
2024/02/06 00:17:19;;;;;;;1.92;1.02;;;18.00;58.40;;;;;;6200307;23;20232;-86
2024/02/06 00:19:45;;;;;;;1.05;0.55;;;18.00;58.40;;;;;;6200629;23;20141;-85
2024/02/06 00:25:03;;;;;;;3.35;0.65;;;18.00;58.20;;;;;;6127265;23;20187;-85
2024/02/06 00:27:30;;;;;;;1.67;0.50;;;18.00;58.50;;;;;;6203933;23;20156;-84
2024/02/06 00:29:55;;;;;;;3.13;0.93;;;18.00;58.30;;;;;;6199986;23;20153;-84
2024/02/06 00:32:21;;;;;;;1.63;0.50;;;17.90;58.10;;;;;;6201366;23;20184;-84
2024/02/06 00:37:26;;;;;;;2.05;0.50;;;18.00;58.10;;;;;;6149128;23;20490;-83
2024/02/06 00:39:53;;;;;;;5.40;0.50;;;18.00;58.30;;;;;;6208230;23;20160;-84
2024/02/06 00:42:19;;;;;;;2.22;0.70;;;18.00;58.30;;;;;;6261150;22;20142;-85
2024/02/06 00:44:46;;;;;;;1.23;0.57;;;18.00;58.30;;;;;;6259814;22;20148;-84
2024/02/06 00:47:14;;;;;;;0.75;0.57;;;17.90;58.20;;;;;;6260118;22;20135;-83
2024/02/06 00:52:47;;;;;;;2.83;0.63;;;18.00;58.10;;;;;;6157906;23;20192;-85
2024/02/06 00:55:14;;;;;;;3.05;0.80;;;17.90;58.20;;;;;;6235941;22;20144;-83
2024/02/06 00:57:43;;;;;;;2.88;0.70;;;17.90;58.10;;;;;;6260849;22;20201;-83
2024/02/06 01:00:13;;;;;;;4.82;0.65;;;17.90;58.20;;;;;;6234918;23;20143;-86
2024/02/06 01:02:39;;;;;;;0.80;0.40;;;17.90;58.10;;;;;;6226909;22;20254;-84
2024/02/06 01:05:10;;;;;;;2.20;0.50;;;17.90;58.20;;;;;;6157417;22;20148;-86
2024/02/06 01:07:36;;;;;;;1.25;0.63;;;17.90;58.00;;;;;;6260571;22;20136;-85
2024/02/06 01:10:03;;;;;;;3.08;0.60;;;17.90;58.00;;;;;;6260001;22;20205;-85
2024/02/06 01:12:30;;;;;;;2.72;0.68;;;17.90;58.20;;;;;;6261012;22;20597;-84
2024/02/06 01:14:59;;;;;;;1.20;0.70;;;17.90;58.80;;;;;;6260152;22;20193;-87
2024/02/06 01:17:25;;;;;;;1.38;0.60;;;17.80;58.30;;;;;;6260509;22;20238;-85
2024/02/06 01:20:18;;;;;;;3.45;0.65;;;17.90;58.30;;;;;;6260020;22;20136;-85
2024/02/06 01:30:46;;;;;;;3.05;0.50;;;17.90;58.30;;;;;;6152748;23;20288;-84
2024/02/06 01:33:12;;;;;;;4.25;0.50;;;17.90;58.00;;;;;;6234474;23;20194;-85
2024/02/06 01:35:37;;;;;;;4.70;0.60;;;17.90;58.20;;;;;;6260120;22;20160;-85
2024/02/06 01:38:08;;;;;;;0.90;0.60;;;17.90;58.20;;;;;;6259146;22;20152;-84
2024/02/06 01:40:42;;;;;;;2.00;0.68;;;17.90;58.00;;;;;;6255812;22;21170;-86
2024/02/06 01:43:08;;;;;;;1.48;0.60;;;17.90;58.00;;;;;;6258875;22;20170;-86
2024/02/06 01:45:34;;;;;;;1.77;0.50;;;17.80;58.00;;;;;;6233007;23;20155;-85
2024/02/06 01:50:43;;;;;;;1.67;0.50;;;17.80;58.00;;;;;;6152652;23;20292;-85
2024/02/06 01:53:08;;;;;;;1.25;0.50;;;17.80;58.10;;;;;;6258771;22;20191;-86
2024/02/06 01:55:34;;;;;;;1.67;0.50;;;17.80;58.00;;;;;;6233555;23;20150;-85
2024/02/06 01:58:05;;;;;;;1.88;0.60;;;17.80;58.10;;;;;;6234138;23;20160;-86
2024/02/06 02:00:31;;;;;;;1.95;0.60;;;17.80;58.00;;;;;;6232290;22;20224;-85
2024/02/06 02:03:00;;;;;;;2.00;0.63;;;17.80;57.90;;;;;;6232107;23;20183;-87
2024/02/06 02:05:26;;;;;;;2.88;0.80;;;17.80;58.10;;;;;;6232331;22;20151;-87
2024/02/06 02:07:52;;;;;;;1.27;0.60;;;17.90;58.10;;;;;;6259523;22;20226;-85
2024/02/06 02:10:18;;;;;;;1.58;0.50;;;17.80;57.90;;;;;;6232659;22;20156;-84
2024/02/06 02:12:43;;;;;;;0.93;0.40;;;17.80;58.10;;;;;;6233467;23;20187;-85
2024/02/06 02:15:14;;;;;;;1.10;0.65;;;17.70;57.90;;;;;;6233501;23;20482;-87
2024/02/06 02:17:41;;;;;;;1.67;0.60;;;17.80;58.00;;;;;;6258940;22;20139;-85
2024/02/06 02:20:10;;;;;;;1.20;0.60;;;17.70;57.80;;;;;;6233817;23;20163;-85
2024/02/06 02:22:37;;;;;;;0.88;0.45;;;17.70;58.10;;;;;;6232553;23;20144;-84
2024/02/06 02:25:03;;;;;;;3.35;0.47;;;17.70;58.00;;;;;;6257493;22;20139;-84
2024/02/06 02:27:28;;;;;;;2.92;0.60;;;17.80;58.00;;;;;;6258842;22;20144;-86
2024/02/06 02:29:56;;;;;;;4.07;0.60;;;17.80;58.00;;;;;;6234007;23;20147;-84
2024/02/06 02:32:22;;;;;;;1.05;0.50;;;17.70;58.10;;;;;;6258567;22;20186;-86
2024/02/06 02:34:48;;;;;;;2.00;0.70;;;17.80;57.90;;;;;;6284046;22;20722;-85
2024/02/06 02:37:14;;;;;;;1.38;0.57;;;17.70;58.00;;;;;;6257603;22;20147;-86
2024/02/06 02:39:40;;;;;;;2.05;0.43;;;17.70;57.70;;;;;;6232574;23;20175;-85
2024/02/06 02:42:07;;;;;;;1.92;0.70;;;17.80;57.80;;;;;;6231616;23;20232;-85
2024/02/06 02:44:33;;;;;;;1.77;0.85;;;17.70;57.80;;;;;;6258579;22;20214;-87
2024/02/06 02:47:00;;;;;;;1.00;0.45;;;17.70;58.00;;;;;;6257981;22;20211;-84
2024/02/06 02:49:26;;;;;;;3.50;0.60;;;17.70;58.00;;;;;;6257434;22;20131;-86
2024/02/06 02:51:52;;;;;;;2.00;0.60;;;17.70;57.90;;;;;;6257250;22;20946;-85
2024/02/06 02:54:23;;;;;;;2.05;0.50;;;17.70;58.00;;;;;;6232081;23;20147;-86
2024/02/06 02:56:49;;;;;;;1.25;0.40;;;17.70;58.10;;;;;;6258313;22;20182;-85
2024/02/06 02:59:19;;;;;;;1.25;0.60;;;17.70;58.00;;;;;;6232635;22;20597;-86
2024/02/06 03:01:47;;;;;;;2.00;0.70;;;17.70;57.80;;;;;;6205601;23;20275;-87
2024/02/06 03:04:13;;;;;;;2.05;0.60;;;17.70;57.80;;;;;;6257289;22;20139;-85
2024/02/06 03:06:44;;;;;;;0.82;0.60;;;17.70;57.90;;;;;;6233685;23;20166;-85
2024/02/06 03:09:14;;;;;;;1.77;0.50;;;17.70;58.00;;;;;;6183430;22;20174;-87
2024/02/06 03:11:40;;;;;;;0.80;0.47;;;17.70;57.90;;;;;;6234789;22;20607;-85
2024/02/06 03:21:52;;;;;;;1.98;0.55;;;17.60;57.90;;;;;;6152426;23;20254;-84
2024/02/06 03:24:18;;;;;;;1.42;0.50;;;17.60;57.70;;;;;;6259470;22;20474;-84
2024/02/06 03:26:46;;;;;;;2.70;0.50;;;17.70;57.70;;;;;;6232802;23;20201;-86
2024/02/06 03:29:12;;;;;;;1.40;0.43;;;17.60;57.70;;;;;;6260408;22;20132;-85
2024/02/06 03:31:37;;;;;;;1.25;0.68;;;17.60;57.80;;;;;;6259012;22;20132;-84
2024/02/06 03:34:07;;;;;;;3.30;0.52;;;17.60;57.40;;;;;;6235163;22;20150;-86
2024/02/06 03:36:34;;;;;;;2.00;0.40;;;17.60;57.80;;;;;;6259122;22;20210;-84
2024/02/06 03:39:00;;;;;;;2.17;0.50;;;17.60;57.70;;;;;;6233805;22;20152;-84
2024/02/06 03:41:27;;;;;;;2.10;0.60;;;17.60;57.60;;;;;;6259455;22;20136;-86
2024/02/06 03:43:53;;;;;;;1.08;0.50;;;17.60;57.80;;;;;;6233422;23;20169;-86
2024/02/06 03:46:25;;;;;;;0.80;0.50;;;17.70;57.80;;;;;;6235157;23;20152;-85
2024/02/06 03:48:56;;;;;;;1.35;0.45;;;17.60;58.50;;;;;;6183713;22;20155;-87
2024/02/06 03:53:47;;;;;;;1.50;0.60;;;17.60;57.90;;;;;;6254891;22;20533;-85
2024/02/06 03:56:17;;;;;;;0.85;0.47;;;17.60;57.70;;;;;;6233790;23;20610;-86
2024/02/06 04:01:44;;;;;;;0.90;0.43;;;17.60;57.80;;;;;;6155364;23;20207;-84
2024/02/06 04:04:11;;;;;;;1.85;0.75;;;17.60;57.70;;;;;;6235007;22;20211;-86
2024/02/06 04:06:36;;;;;;;0.63;0.50;;;17.60;57.60;;;;;;6234046;23;20177;-85
2024/02/06 04:09:06;;;;;;;1.00;0.52;;;17.60;57.70;;;;;;6259581;22;20559;-84
2024/02/06 04:11:32;;;;;;;1.75;0.73;;;17.60;57.70;;;;;;6234231;22;20152;-84
2024/02/06 04:13:57;;;;;;;0.95;0.45;;;17.60;57.90;;;;;;6234558;23;20162;-85
2024/02/06 04:16:23;;;;;;;1.83;0.65;;;17.50;57.60;;;;;;6279501;22;20280;-83
2024/02/06 04:18:54;;;;;;;1.20;0.47;;;17.50;57.40;;;;;;6280437;22;20133;-85
2024/02/06 04:21:22;;;;;;;0.43;0.40;;;17.50;57.80;;;;;;6256652;22;20144;-88
2024/02/06 04:23:50;;;;;;;0.85;0.50;;;17.50;57.50;;;;;;6279752;22;20129;-86
2024/02/06 04:26:16;;;;;;;1.67;0.60;;;17.50;57.60;;;;;;6254851;22;20141;-85
2024/02/06 04:28:41;;;;;;;1.00;0.50;;;17.60;57.70;;;;;;6280456;22;20208;-86
2024/02/06 04:31:08;;;;;;;0.70;0.40;;;17.50;57.80;;;;;;6254485;22;20149;-86
2024/02/06 04:33:34;;;;;;;0.98;0.40;;;17.60;57.60;;;;;;6254797;22;20575;-85
2024/02/06 04:36:01;;;;;;;1.27;0.73;;;17.60;57.60;;;;;;6254286;22;20152;-87
2024/02/06 04:38:27;;;;;;;0.30;0.30;;;17.60;57.70;;;;;;6280221;22;20152;-86
2024/02/06 04:40:52;;;;;;;1.10;0.60;;;17.50;57.50;;;;;;6280298;22;20149;-86
2024/02/06 04:43:25;;;;;;;2.13;0.52;;;17.60;57.50;;;;;;6280041;22;20137;-85
2024/02/06 04:45:50;;;;;;;1.10;0.55;;;17.60;57.60;;;;;;6279890;22;20149;-85
2024/02/06 04:48:18;;;;;;;0.60;0.50;;;17.50;57.50;;;;;;6279438;22;20579;-85
2024/02/06 04:50:44;;;;;;;1.73;0.45;;;17.60;57.60;;;;;;6279394;22;20194;-86
2024/02/06 04:53:10;;;;;;;1.00;0.50;;;17.50;57.70;;;;;;6279669;22;20259;-85
2024/02/06 04:55:39;;;;;;;0.80;0.63;;;17.50;57.60;;;;;;6253278;22;20145;-84
2024/02/06 04:58:05;;;;;;;1.92;0.55;;;17.50;57.50;;;;;;6253317;22;20232;-86
2024/02/06 05:00:32;;;;;;;2.25;0.70;;;17.50;57.60;;;;;;6279383;22;20129;-87
2024/02/06 05:02:58;;;;;;;2.83;0.60;;;17.50;58.20;;;;;;6278780;22;20153;-85
2024/02/06 05:05:25;;;;;;;1.42;0.52;;;17.50;57.60;;;;;;6253029;22;20171;-85
2024/02/06 05:07:52;;;;;;;1.02;0.70;;;17.50;57.50;;;;;;6253725;22;20148;-87
2024/02/06 05:10:19;;;;;;;1.05;0.60;;;17.50;57.60;;;;;;6253676;22;20140;-85
2024/02/06 05:12:45;;;;;;;3.00;0.50;;;17.50;57.50;;;;;;6279028;22;20259;-87
2024/02/06 05:15:11;;;;;;;1.20;0.57;;;17.50;57.50;;;;;;6238698;22;20204;-85
2024/02/06 05:17:40;;;;;;;1.48;0.50;;;17.40;57.50;;;;;;6253096;22;20147;-85
2024/02/06 05:20:08;;;;;;;2.17;0.60;;;17.50;57.50;;;;;;6278399;22;20153;-84
2024/02/06 05:22:38;;;;;;;1.88;0.77;;;17.40;57.50;;;;;;6252217;22;20149;-86
2024/02/06 05:25:09;;;;;;;2.22;0.70;;;17.50;57.50;;;;;;6252086;22;20140;-85
2024/02/06 05:27:40;;;;;;;0.95;0.50;;;17.50;57.40;;;;;;6201627;22;20475;-84
2024/02/06 05:30:06;;;;;;;0.38;0.32;;;17.50;57.50;;;;;;6278842;22;20135;-84
2024/02/06 05:32:35;;;;;;;2.10;0.60;;;17.50;57.60;;;;;;6252102;22;20177;-86
2024/02/06 05:35:02;;;;;;;1.42;0.68;;;17.40;57.40;;;;;;6252365;22;20475;-84
2024/02/06 05:37:29;;;;;;;0.70;0.40;;;17.50;57.50;;;;;;6278193;22;20129;-85
2024/02/06 05:39:55;;;;;;;1.05;0.57;;;17.40;57.50;;;;;;6272489;22;20512;-86
2024/02/06 05:42:22;;;;;;;1.25;0.60;;;17.40;57.50;;;;;;6277736;22;20167;-85
2024/02/06 05:44:49;;;;;;;0.32;0.32;;;17.40;57.50;;;;;;6278786;22;20590;-84
2024/02/06 05:47:17;;;;;;;1.20;0.40;;;17.40;57.40;;;;;;6279418;22;20218;-84
2024/02/06 05:49:43;;;;;;;1.48;0.45;;;17.40;57.40;;;;;;6253104;22;20148;-87
2024/02/06 05:52:09;;;;;;;0.88;0.50;;;17.40;57.40;;;;;;6252701;22;20185;-86
2024/02/06 05:54:34;;;;;;;0.88;0.50;;;17.40;57.40;;;;;;6253134;22;20163;-85
2024/02/06 05:57:06;;;;;;;0.73;0.40;;;17.50;57.40;;;;;;6277828;22;20129;-85
2024/02/06 05:59:32;;;;;;;0.90;0.50;;;17.40;57.50;;;;;;6200808;22;20149;-84
2024/02/06 06:01:58;;;;;;;1.88;0.85;;;17.50;57.40;;;;;;6277701;22;20153;-85
2024/02/06 06:04:24;;;;;;;0.73;0.40;;;17.40;57.30;;;;;;6253010;22;20155;-85
2024/02/06 06:06:54;;;;;;;1.10;0.57;;;17.40;57.40;;;;;;6254484;22;20136;-85
2024/02/06 06:09:20;;;;;;;1.52;0.73;;;17.40;57.30;;;;;;6280244;22;20147;-86
2024/02/06 06:11:46;;;;;;;1.52;0.60;;;17.40;57.30;;;;;;6278679;22;20184;-85
2024/02/06 06:19:13;;;;;;;1.30;0.60;;;17.60;56.70;;;;;;6190573;22;20210;-82
2024/02/06 06:21:41;;;;;;;2.38;0.40;;;17.50;56.60;;;;;;6256332;22;20155;-85
2024/02/06 06:24:08;;;;;;;0.98;0.50;;;17.60;56.40;;;;;;6231530;23;20144;-84
2024/02/06 06:26:37;;;;;;;1.95;0.60;;;17.70;56.30;;;;;;6229914;23;20158;-86
2024/02/06 06:29:03;;;;;;;0.77;0.50;;;17.70;56.30;;;;;;6230278;22;20179;-85
2024/02/06 06:31:30;;;;;;;1.33;0.55;;;17.60;56.40;;;;;;6255201;22;20216;-86
2024/02/06 06:33:56;;;;;;;1.45;0.50;;;17.70;56.20;;;;;;6230154;22;20154;-85
2024/02/06 06:36:24;;;;;;;1.50;0.70;;;17.80;56.20;;;;;;6255148;22;20211;-83
2024/02/06 06:38:51;;;;;;;0.90;0.50;;;17.70;56.20;;;;;;6253599;22;20128;-84
2024/02/06 06:41:17;;;;;;;1.02;0.60;;;17.70;56.20;;;;;;6263673;22;20136;-83
2024/02/06 06:43:44;;;;;;;0.63;0.40;;;17.80;56.30;;;;;;6241675;22;20151;-82
2024/02/06 06:46:10;;;;;;;1.70;0.50;;;17.70;56.40;;;;;;6267884;22;20187;-83
2024/02/06 06:48:36;;;;;;;1.90;0.52;;;17.60;56.30;;;;;;6267338;22;20132;-83
2024/02/06 06:51:02;;;;;;;1.10;0.60;;;17.70;56.40;;;;;;6243234;23;20155;-83
2024/02/06 06:53:34;;;;;;;1.08;0.40;;;17.70;56.30;;;;;;6267761;22;20171;-84
2024/02/06 06:56:03;;;;;;;2.00;0.55;;;17.70;56.40;;;;;;6268388;22;20197;-83
2024/02/06 06:58:33;;;;;;;1.40;0.60;;;17.80;56.40;;;;;;6242495;23;20136;-83
2024/02/06 07:01:01;;;;;;;0.93;0.60;;;17.70;56.20;;;;;;6216656;22;20161;-84
2024/02/06 07:03:27;;;;;;;1.80;0.57;;;17.70;55.90;;;;;;6251695;23;20152;-83
2024/02/06 07:05:55;;;;;;;0.70;0.55;;;17.80;55.50;;;;;;6151126;23;20608;-85
2024/02/06 07:08:22;;;;;;;1.35;0.77;;;17.80;55.60;;;;;;6189551;23;20152;-85
2024/02/06 07:10:50;;;;;;;1.52;0.70;;;17.80;55.10;;;;;;6042455;23;20566;-83
2024/02/06 07:13:17;;;;;;;0.73;0.52;;;17.80;55.20;;;;;;6163496;23;20549;-85
2024/02/06 07:15:42;;;;;;;2.88;0.80;;;17.80;55.20;;;;;;6163397;23;20154;-85
2024/02/06 07:18:08;;;;;;;0.88;0.60;;;17.90;55.20;;;;;;6163363;23;20225;-83
2024/02/06 07:20:34;;;;;;;0.95;0.70;;;17.80;55.10;;;;;;6138908;23;20142;-86
2024/02/06 07:23:01;;;;;;;1.10;0.70;;;17.90;54.40;;;;;;6164404;23;20135;-86
2024/02/06 07:25:27;;;;;;;2.00;0.50;;;17.90;54.60;;;;;;6138537;23;20154;-84
2024/02/06 07:27:52;;;;;;;1.20;0.68;;;17.80;54.50;;;;;;6138172;23;20155;-86
2024/02/06 07:30:18;;;;;;;0.73;0.70;;;17.90;54.70;;;;;;6138049;23;20150;-85
2024/02/06 07:32:48;;;;;;;0.80;0.50;;;17.90;54.70;;;;;;6163894;23;20189;-85
2024/02/06 07:35:18;;;;;;;2.17;0.57;;;17.80;54.60;;;;;;6188766;23;20154;-85
2024/02/06 07:37:44;;;;;;;1.60;0.80;;;17.80;54.80;;;;;;6092074;23;20157;-84
2024/02/06 07:40:09;;;;;;;2.30;0.70;;;17.80;54.30;;;;;;6202430;22;20475;-86
2024/02/06 07:42:35;;;;;;;1.88;0.73;;;17.90;54.40;;;;;;6275645;22;20545;-85
2024/02/06 07:45:02;;;;;;;1.63;0.65;;;17.80;54.30;;;;;;6251593;22;20152;-84
2024/02/06 07:47:29;;;;;;;0.70;0.60;;;17.90;54.20;;;;;;6277242;22;20208;-85
2024/02/06 07:49:56;;;;;;;1.30;0.60;;;17.90;54.60;;;;;;6252035;22;20168;-85
2024/02/06 07:52:22;;;;;;;1.55;0.70;;;17.90;54.30;;;;;;6276860;22;20181;-85
2024/02/06 07:54:48;;;;;;;0.70;0.57;;;17.80;54.70;;;;;;6277996;22;20583;-84
2024/02/06 07:57:15;;;;;;;2.40;0.65;;;17.80;54.50;;;;;;6278631;22;20141;-83
2024/02/06 07:59:41;;;;;;;1.05;0.68;;;17.80;54.20;;;;;;6280369;22;20141;-83
2024/02/06 09:19:20;;;;;;;1.75;0.70;;;17.90;55.60;;;;;;6154092;23;20596;-83
2024/02/06 09:21:50;;;;;;;0.63;0.40;;;17.90;54.50;;;;;;6151821;23;20199;-85
2024/02/06 09:24:16;;;;;;;3.33;0.70;;;18.00;54.20;;;;;;6103845;23;20156;-84
2024/02/06 09:26:42;;;;;;;0.73;0.52;;;18.00;54.10;;;;;;6154651;23;20159;-82
2024/02/06 09:29:09;;;;;;;1.15;0.77;;;18.00;54.50;;;;;;6131270;22;20652;-84
2024/02/06 09:31:40;;;;;;;2.47;0.95;;;18.00;53.50;;;;;;6155505;23;20185;-81
2024/02/06 09:34:08;;;;;;;1.77;0.52;;;18.00;54.20;;;;;;6228739;23;20158;-83
2024/02/06 09:39:02;;;;;;;1.00;0.60;;;18.00;53.90;;;;;;6200611;22;20227;-84
2024/02/06 09:41:30;;;;;;;2.35;0.70;;;18.10;54.20;;;;;;6251320;22;20583;-83
2024/02/06 09:49:22;;;;;;;2.22;0.55;;;18.00;55.00;;;;;;6122813;23;20184;-81
2024/02/06 09:51:48;;;;;;;0.50;0.43;;;17.90;55.40;;;;;;6198692;23;20198;-84
2024/02/06 09:54:15;;;;;;;1.65;0.60;;;18.00;54.80;;;;;;6199567;23;20156;-82
2024/02/06 09:56:45;;;;;;;2.03;0.80;;;18.00;54.70;;;;;;6201464;23;20136;-83
2024/02/06 09:59:11;;;;;;;0.70;0.52;;;18.00;53.80;;;;;;6203468;23;20513;-86
2024/02/06 10:01:38;;;;;;;1.02;0.52;;;18.10;53.80;;;;;;6201433;23;20151;-81
2024/02/06 10:04:06;;;;;;;0.98;0.60;;;18.10;55.20;;;;;;6204473;23;20194;-84
2024/02/06 10:06:35;;;;;;;1.60;0.73;;;18.10;54.20;;;;;;6176622;23;20156;-83
2024/02/06 10:09:02;;;;;;;0.90;0.60;;;18.10;54.20;;;;;;6223640;23;20192;-83
2024/02/06 10:11:30;;;;;;;3.85;0.90;;;18.10;54.00;;;;;;6225331;23;20223;-81
2024/02/06 10:16:22;;;;;;;1.13;0.73;;;18.20;54.10;;;;;;6305578;22;20209;-83
2024/02/06 10:18:55;;;;;;;1.58;1.10;;;18.20;54.00;;;;;;6254965;22;20579;-84
2024/02/06 10:21:21;;;;;;;3.08;0.75;;;18.20;54.20;;;;;;6230145;22;20587;-84
2024/02/06 10:23:48;;;;;;;1.30;0.60;;;18.10;54.70;;;;;;6282818;22;20132;-83
2024/02/06 10:26:18;;;;;;;5.15;0.90;;;18.10;55.00;;;;;;6284108;22;20206;-83
2024/02/06 10:28:44;;;;;;;1.95;0.57;;;18.20;54.60;;;;;;6286055;22;20150;-85
2024/02/06 10:31:12;;;;;;;4.80;0.90;;;18.20;54.20;;;;;;6284689;22;20492;-83
2024/02/06 10:33:38;;;;;;;3.85;1.00;;;18.20;54.50;;;;;;6259354;22;20171;-84
2024/02/06 10:36:05;;;;;;;3.28;0.90;;;18.20;54.00;;;;;;6257535;22;20448;-84
2024/02/06 10:38:32;;;;;;;3.50;0.85;;;18.20;54.30;;;;;;6286551;22;20128;-85
2024/02/06 10:40:58;;;;;;;3.00;0.77;;;18.20;53.60;;;;;;6260273;22;20140;-82
2024/02/06 10:43:31;;;;;;;13.85;1.35;;;18.20;53.90;;;;;;6284935;22;20220;-82
2024/02/06 10:45:58;;;;;;;8.50;1.10;;;18.20;54.10;;;;;;6257891;22;20144;-81
2024/02/06 10:48:24;;;;;;;5.13;1.10;;;18.20;54.80;;;;;;6259632;22;20132;-81
2024/02/06 10:50:58;;;;;;;5.13;0.90;;;18.10;54.60;;;;;;6258707;22;20615;-83
2024/02/06 10:53:25;;;;;;;6.28;0.90;;;18.30;54.40;;;;;;6283285;22;20155;-83
2024/02/06 10:55:58;;;;;;;6.13;1.10;;;18.20;54.20;;;;;;6232509;22;20163;-83
2024/02/06 10:58:24;;;;;;;3.05;0.95;;;18.20;54.50;;;;;;6281845;22;20211;-84
2024/02/06 11:00:50;;;;;;;2.40;1.02;;;18.20;53.60;;;;;;6257013;22;20690;-82
2024/02/06 11:03:16;;;;;;;4.38;0.93;;;18.20;54.70;;;;;;6283724;22;20144;-87
2024/02/06 11:05:48;;;;;;;1.98;0.70;;;18.20;53.80;;;;;;6258301;22;20175;-82
2024/02/06 11:08:17;;;;;;;3.22;0.70;;;18.20;54.40;;;;;;6256400;22;20140;-84
2024/02/06 11:10:45;;;;;;;2.30;0.90;;;18.20;53.90;;;;;;6281763;22;20136;-86
2024/02/06 11:13:25;;;;;;;4.65;0.80;;;18.20;53.60;;;;;;6283865;22;20159;-84
2024/02/06 11:15:53;;;;;;;2.13;0.65;;;18.20;53.90;;;;;;6286618;22;20183;-86
2024/02/06 11:18:21;;;;;;;2.63;0.95;;;18.30;54.70;;;;;;6258829;22;20163;-85
2024/02/06 11:20:52;;;;;;;2.67;0.90;;;18.30;54.00;;;;;;6286064;22;20132;-84
2024/02/06 11:23:18;;;;;;;2.38;0.70;;;18.20;54.30;;;;;;6224528;23;20161;-84
2024/02/06 11:25:48;;;;;;;3.72;0.77;;;18.20;53.70;;;;;;6249902;23;20180;-86
2024/02/06 11:28:15;;;;;;;2.50;0.80;;;18.20;54.40;;;;;;6227172;23;20203;-85
2024/02/06 11:30:44;;;;;;;3.95;0.70;;;18.20;54.50;;;;;;6228893;23;20149;-83
2024/02/06 11:33:14;;;;;;;2.50;0.63;;;18.20;54.70;;;;;;6251574;23;20632;-83
2024/02/06 11:35:41;;;;;;;1.73;0.80;;;18.10;55.20;;;;;;6229205;23;20581;-85
2024/02/06 11:38:12;;;;;;;4.47;0.80;;;18.00;55.20;;;;;;6230806;23;20618;-83
2024/02/06 11:41:23;;;;;;;;;;;;;;;;;;;;;
2024/02/06 11:43:53;;;;;;;2.55;0.70;;;18.00;55.40;;;;;;6217754;23;20519;-83
2024/02/06 11:46:22;;;;;;;1.38;0.60;;;18.00;55.70;;;;;;6230554;23;20193;-81
2024/02/06 11:48:49;;;;;;;7.55;0.98;;;18.00;55.30;;;;;;6259298;23;20153;-82
2024/02/06 11:51:34;;;;;;;2.47;0.52;;;18.00;55.50;;;;;;6257789;23;20168;-82
2024/02/06 11:54:13;;;;;;;1.85;0.70;;;18.00;55.30;;;;;;6203461;22;20186;-83
2024/02/06 11:56:46;;;;;;;1.40;0.40;;;17.90;55.10;;;;;;6269212;22;20136;-87
2024/02/06 11:59:13;;;;;;;1.13;0.60;;;17.90;55.30;;;;;;6215688;22;20148;-85
2024/02/06 12:01:42;;;;;;;1.48;0.82;;;17.90;56.40;;;;;;6292367;22;20155;-83
2024/02/06 12:04:09;;;;;;;2.25;0.70;;;17.90;55.50;;;;;;6296002;22;20151;-82
2024/02/06 12:06:37;;;;;;;1.95;0.70;;;17.90;55.30;;;;;;6294478;22;20132;-83
2024/02/06 12:09:06;;;;;;;2.33;0.70;;;17.90;55.20;;;;;;6267782;22;20136;-82
2024/02/06 12:11:37;;;;;;;1.60;0.50;;;17.90;56.30;;;;;;6286450;22;20132;-82
2024/02/06 12:14:12;;;;;;;1.85;0.80;;;17.90;55.10;;;;;;6260474;22;20175;-83
2024/02/06 12:16:39;;;;;;;2.22;0.70;;;17.90;54.90;;;;;;6254287;22;20695;-85
2024/02/06 12:19:09;;;;;;;1.83;0.60;;;17.90;55.00;;;;;;6254608;22;20151;-82
2024/02/06 12:21:35;;;;;;;1.10;0.68;;;17.90;55.10;;;;;;6228575;22;20144;-85
2024/02/06 12:24:02;;;;;;;6.22;0.80;;;17.90;55.50;;;;;;6257293;22;20454;-83
2024/02/06 12:26:28;;;;;;;7.40;0.95;;;17.90;55.10;;;;;;6233755;22;20149;-82
2024/02/06 12:29:02;;;;;;;13.02;1.30;;;18.00;55.20;;;;;;6259155;22;20128;-82
2024/02/06 12:31:33;;;;;;;10.18;1.30;;;17.90;55.80;;;;;;6235096;22;20516;-82
2024/02/06 12:34:07;;;;;;;4.18;0.70;;;17.90;55.50;;;;;;6264232;22;20157;-84
2024/02/06 12:36:34;;;;;;;5.03;0.82;;;17.90;55.10;;;;;;6236751;22;20603;-83
2024/02/06 12:39:12;;;;;;;5.88;0.65;;;17.90;54.70;;;;;;6262477;22;20128;-84
2024/02/06 12:41:39;;;;;;;3.45;0.90;;;18.00;54.30;;;;;;6260504;22;20156;-84
2024/02/06 12:44:07;;;;;;;7.90;0.95;;;18.00;55.00;;;;;;6232841;22;20148;-85
2024/02/06 12:46:35;;;;;;;5.80;1.05;;;18.10;54.40;;;;;;6259380;22;20141;-85
2024/02/06 12:49:04;;;;;;;2.78;0.80;;;18.20;54.60;;;;;;6259360;22;20142;-84
2024/02/06 12:51:31;;;;;;;5.10;0.70;;;18.10;54.50;;;;;;6258158;22;20201;-84
2024/02/06 12:54:13;;;;;;;;;;;;;;;;;;;;;
2024/02/06 12:56:41;;;;;;;5.35;0.70;;;18.10;54.80;;;;;;6231640;22;20180;-83
2024/02/06 12:59:08;;;;;;;6.10;0.85;;;18.10;54.70;;;;;;6231895;22;20133;-84
2024/02/06 13:01:34;;;;;;;2.28;0.75;;;18.00;54.70;;;;;;6233147;22;20582;-82
2024/02/06 13:03:59;;;;;;;2.58;0.70;;;18.00;55.20;;;;;;6231411;22;20144;-86
2024/02/06 13:06:36;;;;;;;4.18;0.82;;;18.00;54.80;;;;;;6254668;22;20194;-86
2024/02/06 13:09:05;;;;;;;2.97;0.90;;;18.00;54.40;;;;;;6255452;22;20125;-84
2024/02/06 13:11:36;;;;;;;3.88;0.80;;;18.00;55.70;;;;;;6176679;22;20433;-87
2024/02/06 13:15:11;;;;;;;5.80;1.13;;;18.10;55.50;;;;;;6255451;22;20160;-87
2024/02/06 13:17:27;;;;;;;5.95;0.95;;;18.10;55.60;;;;;;6250730;22;20223;-82
2024/02/06 13:20:16;;;;;;;4.25;0.85;;;18.00;55.60;;;;;;6204872;22;20141;-89
2024/02/06 13:22:45;;;;;;;6.32;0.77;;;18.00;54.30;;;;;;6229954;22;20145;-85
2024/02/06 13:26:09;;;;;;;2.72;0.80;;;18.10;55.00;;;;;;6221558;23;20233;-84
2024/02/06 13:28:45;;;;;;;3.83;0.70;;;18.10;54.60;;;;;;6212590;23;20363;-87
2024/02/06 13:34:51;;;;;;;6.05;0.80;;;18.20;54.60;;;;;;5988887;24;20170;-85
2024/02/06 13:37:24;;;;;;;3.67;0.80;;;18.10;55.20;;;;;;5945578;24;20159;-84
2024/02/06 13:40:05;;;;;;;;;;;;;;;;;;;;;
2024/02/06 13:42:32;;;;;;;5.05;0.75;;;18.10;54.70;;;;;;5972907;24;20197;-85
2024/02/06 13:44:57;;;;;;;4.85;0.80;;;18.10;55.10;;;;;;5987589;24;20159;-83
2024/02/06 13:47:24;;;;;;;1.05;0.55;;;18.10;54.90;;;;;;5990486;24;20192;-83
2024/02/06 13:49:51;;;;;;;7.45;0.90;;;18.30;54.40;;;;;;5987962;23;20163;-83
2024/02/06 13:52:17;;;;;;;4.38;0.95;;;18.20;54.50;;;;;;5963546;24;20187;-85
2024/02/06 13:54:43;;;;;;;1.92;0.77;;;18.20;54.60;;;;;;5988254;23;20466;-87
2024/02/06 13:57:08;;;;;;;3.78;0.60;;;18.20;54.00;;;;;;6025751;23;20629;-85
2024/02/06 13:59:34;;;;;;;3.53;0.60;;;18.30;54.40;;;;;;6038043;23;20277;-83
2024/02/06 14:02:00;;;;;;;3.50;0.60;;;18.30;53.80;;;;;;6038616;23;20214;-87
2024/02/06 14:04:27;;;;;;;2.50;0.60;;;18.30;54.40;;;;;;6009769;23;20159;-85
2024/02/06 14:06:55;;;;;;;3.88;0.60;;;18.30;54.70;;;;;;6037006;23;20151;-84
2024/02/06 14:09:25;;;;;;;3.05;0.63;;;18.30;54.70;;;;;;6028023;23;20695;-84
2024/02/06 14:12:11;;;;;;;3.03;0.50;;;18.30;54.40;;;;;;6210225;22;20228;-84
2024/02/06 14:14:37;;;;;;;2.42;1.08;;;18.30;55.00;;;;;;6257773;22;20151;-86
2024/02/06 14:17:10;;;;;;;1.55;0.75;;;18.30;53.70;;;;;;6259000;22;20270;-84
2024/02/06 14:19:36;;;;;;;1.90;0.73;;;18.30;53.90;;;;;;6261017;22;20144;-87
2024/02/06 14:22:06;;;;;;;4.75;0.63;;;18.40;55.20;;;;;;6265045;22;20147;-83
2024/02/06 14:24:32;;;;;;;2.53;0.70;;;18.30;53.90;;;;;;6269982;22;20148;-83
2024/02/06 14:27:01;;;;;;;2.40;0.57;;;18.30;54.20;;;;;;6294536;22;20334;-83
2024/02/06 14:29:36;;;;;;;2.35;0.60;;;18.30;54.60;;;;;;6267358;22;20156;-84
2024/02/06 14:32:24;;;;;;;0.98;0.57;;;18.30;53.90;;;;;;6293398;22;20128;-84
2024/02/06 14:34:59;;;;;;;2.05;0.60;;;18.30;54.00;;;;;;6267271;22;20159;-85
2024/02/06 14:37:30;;;;;;;2.58;0.63;;;18.30;54.70;;;;;;6220176;22;20207;-84
2024/02/06 14:39:58;;;;;;;3.58;0.68;;;18.30;54.60;;;;;;6231801;23;20200;-83
2024/02/06 14:42:28;;;;;;;2.90;0.65;;;18.30;54.60;;;;;;6232400;23;20169;-84
2024/02/06 14:44:55;;;;;;;1.20;0.63;;;18.20;55.70;;;;;;6175658;23;20165;-84
2024/02/06 14:47:20;;;;;;;2.38;0.70;;;18.20;55.70;;;;;;6150172;23;20154;-84
2024/02/06 14:49:50;;;;;;;2.10;0.75;;;18.20;55.00;;;;;;6199735;23;20161;-84
2024/02/06 14:52:22;;;;;;;3.15;0.52;;;18.30;55.00;;;;;;6173899;23;20174;-85
2024/02/06 14:54:55;;;;;;;3.70;0.63;;;18.20;55.00;;;;;;6151528;23;20153;-85
2024/02/06 14:57:23;;;;;;;2.95;0.70;;;18.20;55.70;;;;;;6155100;23;20137;-85
2024/02/06 14:59:52;;;;;;;2.53;0.80;;;18.20;56.00;;;;;;6175811;23;20221;-87
2024/02/06 15:02:19;;;;;;;1.20;0.60;;;18.10;55.50;;;;;;6177324;23;20149;-85
2024/02/06 15:04:46;;;;;;;1.63;0.60;;;18.20;55.80;;;;;;6175647;23;20152;-87